KCWA

Central Wisconsin Airport

Mosinee, Wisconsin, USA
METAR KCWA 191645Z 04009KT 10SM SKC M13/M17 A3024
Observed Flight Rules
Jan-19 @ 16:45 UTC (11 minutes ago) Visual Flight Rules
Wind Visibility Clouds
40° at 9 knots 10 miles
  • Clear skies
Temperatures Readings
Current -13°C / 9°F
Dewpoint -17°C / 1°F
Humidity 72%
Altimeter 30.24" Hg
Pressure 1024.02 hPa
Elevation 389
METAR KCWA 191645Z 04009KT 10SM SKC M13/M17 A3024
Observed Flight Rules
Jan-19 @ 16:45 UTC
(11 minutes ago)
VFR
Wind Visibility
40° at 9 knots 10 miles
Clouds
  • Clear skies
Temperature Dewpoint
-13°C / 9°F -17°C / 1°F
Humidity Altimeter Pressure
72% 30.24" Hg 1024.02 hPa